createdAt,value
2023-05-19T00:02:09.428Z,2.30
2023-05-19T00:04:42.969Z,3.50
2023-05-19T00:07:16.491Z,2.20
2023-05-19T00:09:49.567Z,5.60
2023-05-19T00:12:21.935Z,3.40
2023-05-19T00:14:54.732Z,2.40
2023-05-19T00:17:27.610Z,2.50
2023-05-19T00:19:59.470Z,5.70
2023-05-19T00:22:31.736Z,2.40
2023-05-19T00:25:04.208Z,2.30
2023-05-19T00:27:36.213Z,2.70
2023-05-19T00:30:10.370Z,2.50
2023-05-19T00:32:42.669Z,2.60
2023-05-19T00:35:14.729Z,6.30
2023-05-19T00:37:46.821Z,2.60
2023-05-19T00:40:19.072Z,2.70
2023-05-19T00:42:51.263Z,2.40
2023-05-19T00:45:23.210Z,3.70
2023-05-19T00:47:56.170Z,2.70
2023-05-19T00:50:28.664Z,2.30
2023-05-19T00:53:00.759Z,4.30
2023-05-19T00:55:34.415Z,4.10
2023-05-19T00:58:07.618Z,7.10
2023-05-19T01:00:39.918Z,2.90
2023-05-19T01:03:12.714Z,4.30
2023-05-19T01:05:45.346Z,2.90
2023-05-19T01:08:18.364Z,6.60
2023-05-19T01:10:50.397Z,2.30
2023-05-19T01:13:22.718Z,3.40
2023-05-19T01:16:02.011Z,3.00
2023-05-19T01:18:44.249Z,6.30
2023-05-19T01:21:36.636Z,8.10
2023-05-19T01:24:23.082Z,5.10
2023-05-19T01:27:17.487Z,2.70
2023-05-19T01:30:26.723Z,2.90
2023-05-19T01:33:01.878Z,3.00
2023-05-19T01:35:35.838Z,4.30
2023-05-19T01:40:42.766Z,5.60
2023-05-19T01:43:21.275Z,3.10
2023-05-19T01:45:53.996Z,3.50
2023-05-19T01:48:26.416Z,4.70
2023-05-19T01:50:58.789Z,3.70
2023-05-19T01:53:30.629Z,3.40
2023-05-19T01:56:02.757Z,8.70
2023-05-19T01:58:41.546Z,6.40
2023-05-19T02:01:21.536Z,3.80
2023-05-19T02:04:08.521Z,6.90
2023-05-19T02:06:46.137Z,4.00
2023-05-19T02:09:26.986Z,6.60
2023-05-19T02:12:02.907Z,3.60
2023-05-19T02:14:40.723Z,3.90
2023-05-19T02:17:17.105Z,3.50
2023-05-19T02:19:49.298Z,4.00
2023-05-19T02:22:21.438Z,4.20
2023-05-19T02:24:53.621Z,6.70
2023-05-19T02:27:26.417Z,4.30
2023-05-19T02:29:59.063Z,6.90
2023-05-19T02:32:31.239Z,3.80
2023-05-19T02:35:04.079Z,4.70
2023-05-19T02:37:37.378Z,4.60
2023-05-19T02:40:12.886Z,3.60
2023-05-19T02:42:44.822Z,4.40
2023-05-19T02:45:17.211Z,7.00
2023-05-19T02:47:49.315Z,4.10
2023-05-19T02:50:22.688Z,4.80
2023-05-19T02:52:54.724Z,4.20
2023-05-19T02:55:26.888Z,5.60
2023-05-19T02:57:58.816Z,5.10
2023-05-19T03:00:30.896Z,5.80
2023-05-19T03:03:04.704Z,6.40
2023-05-19T03:05:36.997Z,7.20
2023-05-19T03:08:09.465Z,5.40
2023-05-19T03:10:41.410Z,4.20
2023-05-19T03:13:13.526Z,4.80
2023-05-19T03:15:45.324Z,6.00
2023-05-19T03:18:17.594Z,8.00
2023-05-19T03:20:49.931Z,5.50
2023-05-19T03:23:22.375Z,5.40
2023-05-19T03:25:56.187Z,5.10
2023-05-19T03:28:28.092Z,6.10
2023-05-19T03:31:00.013Z,5.10
2023-05-19T03:33:32.445Z,8.90
2023-05-19T03:36:05.295Z,8.60
2023-05-19T03:38:37.532Z,6.10
2023-05-19T03:41:09.502Z,7.70
2023-05-19T03:43:41.888Z,5.10
2023-05-19T03:46:13.986Z,5.90
2023-05-19T03:48:46.512Z,6.20
2023-05-19T03:51:18.382Z,8.00
2023-05-19T03:53:52.107Z,5.40
2023-05-19T03:56:26.633Z,4.90
2023-05-19T03:58:59.585Z,5.70
2023-05-19T04:01:31.821Z,5.20
2023-05-19T04:04:03.799Z,13.30
2023-05-19T04:06:36.475Z,7.40
2023-05-19T04:09:14.670Z,8.20
2023-05-19T04:11:46.959Z,8.50
2023-05-19T04:14:20.215Z,6.10
2023-05-19T04:16:53.956Z,6.20
2023-05-19T04:19:26.625Z,6.40
2023-05-19T04:21:58.848Z,7.00
2023-05-19T04:24:33.868Z,7.40
2023-05-19T04:27:12.186Z,8.30
2023-05-19T04:29:46.205Z,5.70
2023-05-19T04:32:18.674Z,5.40
2023-05-19T04:34:51.368Z,8.20
2023-05-19T04:37:24.310Z,5.90
2023-05-19T04:39:56.567Z,5.30
2023-05-19T04:42:30.880Z,6.80
2023-05-19T04:45:03.895Z,5.70
2023-05-19T04:47:36.956Z,6.70
2023-05-19T04:50:11.553Z,6.00
2023-05-19T04:52:45.776Z,5.70
2023-05-19T04:55:18.237Z,5.70
2023-05-19T04:57:50.930Z,5.50
2023-05-19T05:00:25.412Z,4.60
2023-05-19T05:02:58.093Z,5.60
2023-05-19T05:05:30.387Z,8.30
2023-05-19T05:08:03.350Z,8.20
2023-05-19T05:10:35.591Z,4.30
2023-05-19T05:13:09.983Z,10.00
2023-05-19T05:15:44.023Z,4.80
2023-05-19T05:18:17.937Z,3.80
2023-05-19T05:20:51.358Z,4.20
2023-05-19T05:23:24.520Z,3.60
2023-05-19T05:25:57.445Z,5.00
2023-05-19T05:28:31.505Z,4.00
2023-05-19T05:31:03.493Z,5.80
2023-05-19T05:33:36.074Z,5.60
2023-05-19T05:36:09.352Z,4.10
2023-05-19T05:38:41.578Z,3.80
2023-05-19T05:41:13.677Z,3.60
2023-05-19T05:43:45.600Z,3.70
2023-05-19T05:46:17.711Z,5.00
2023-05-19T05:48:50.551Z,5.20
2023-05-19T05:51:24.569Z,2.90
2023-05-19T05:56:29.485Z,4.10
2023-05-19T05:59:03.476Z,3.90
2023-05-19T06:04:08.136Z,4.10
2023-05-19T06:06:40.062Z,4.40
2023-05-19T06:09:12.602Z,4.30
2023-05-19T06:11:45.572Z,3.90
2023-05-19T06:14:19.300Z,3.10
2023-05-19T06:16:52.399Z,3.60
2023-05-19T06:19:27.744Z,5.90
2023-05-19T06:22:02.812Z,3.40
2023-05-19T06:24:35.217Z,9.90
2023-05-19T06:27:08.672Z,4.20
2023-05-19T06:29:40.598Z,4.90
2023-05-19T06:32:12.550Z,6.70
2023-05-19T06:34:44.638Z,3.90
2023-05-19T06:37:21.064Z,5.10
2023-05-19T06:39:53.514Z,3.90
2023-05-19T06:42:26.110Z,2.90
2023-05-19T06:44:58.749Z,3.50
2023-05-19T06:47:31.104Z,4.20
2023-05-19T06:50:03.048Z,5.10
2023-05-19T06:52:35.246Z,4.10
2023-05-19T06:55:09.109Z,4.10
2023-05-19T06:57:44.252Z,3.80
2023-05-19T07:00:20.585Z,3.30
2023-05-19T07:02:55.439Z,7.60
2023-05-19T07:05:29.491Z,3.90
2023-05-19T07:08:01.772Z,6.40
2023-05-19T07:10:34.603Z,7.90
2023-05-19T07:13:06.909Z,4.80
2023-05-19T07:15:39.371Z,6.40
2023-05-19T07:18:11.508Z,7.90
2023-05-19T07:20:45.571Z,4.10
2023-05-19T07:23:17.743Z,5.00
2023-05-19T07:25:49.900Z,4.20
2023-05-19T07:28:24.029Z,4.70
2023-05-19T07:30:56.924Z,4.20
2023-05-19T07:33:30.164Z,5.90
2023-05-19T07:36:02.599Z,4.80
2023-05-19T07:38:35.324Z,4.00
2023-05-19T07:41:07.871Z,5.10
2023-05-19T07:43:40.005Z,5.10
2023-05-19T07:46:12.105Z,6.00
2023-05-19T07:48:44.259Z,5.90
2023-05-19T07:51:16.742Z,6.00
2023-05-19T07:53:49.225Z,7.70
2023-05-19T07:56:22.885Z,5.40
2023-05-19T07:58:55.272Z,7.00
2023-05-19T08:01:30.706Z,9.20
2023-05-19T08:04:03.527Z,10.80
2023-05-19T08:06:35.622Z,8.30
2023-05-19T08:09:07.718Z,6.90
2023-05-19T08:11:39.648Z,8.20
2023-05-19T08:14:11.901Z,9.40
2023-05-19T08:16:45.916Z,9.50
2023-05-19T08:19:17.874Z,6.80
2023-05-19T08:21:50.784Z,13.30
2023-05-19T08:24:24.282Z,10.50
2023-05-19T08:26:57.018Z,8.80
2023-05-19T08:29:30.194Z,8.60
2023-05-19T08:32:03.809Z,9.80
2023-05-19T08:34:36.244Z,9.90
2023-05-19T08:37:08.914Z,8.40
2023-05-19T08:39:40.868Z,9.50
2023-05-19T08:42:12.784Z,9.60
2023-05-19T08:44:44.978Z,8.30
2023-05-19T08:47:18.985Z,19.00
2023-05-19T08:49:56.709Z,9.80
2023-05-19T08:52:37.135Z,14.40
2023-05-19T08:55:14.499Z,10.10
2023-05-19T08:57:46.596Z,10.70
2023-05-19T09:00:20.184Z,10.90
2023-05-19T09:03:00.856Z,8.60
2023-05-19T09:05:33.910Z,9.20
2023-05-19T09:08:07.364Z,7.60
2023-05-19T09:10:39.276Z,12.70
2023-05-19T09:13:11.558Z,9.40
2023-05-19T09:15:44.941Z,13.20
2023-05-19T09:18:17.156Z,11.00
2023-05-19T09:20:49.429Z,14.00
2023-05-19T09:23:25.101Z,13.30
2023-05-19T09:25:59.082Z,11.70
2023-05-19T09:28:33.396Z,14.30
2023-05-19T09:31:07.863Z,15.00
2023-05-19T09:33:45.526Z,16.10
2023-05-19T09:36:18.110Z,12.20
2023-05-19T09:38:49.977Z,14.90
2023-05-19T09:41:23.422Z,14.80
2023-05-19T09:43:58.618Z,19.10
2023-05-19T09:46:32.303Z,14.60
2023-05-19T09:49:11.865Z,14.90
2023-05-19T09:51:45.932Z,16.60
2023-05-19T09:54:19.089Z,15.80
2023-05-19T09:56:57.671Z,17.00
2023-05-19T09:59:33.011Z,13.30
2023-05-19T10:02:06.496Z,15.90
2023-05-19T10:04:39.309Z,19.60
2023-05-19T10:07:14.483Z,12.20
2023-05-19T10:09:50.111Z,13.30
2023-05-19T10:12:22.949Z,13.10
2023-05-19T10:14:56.479Z,13.00
2023-05-19T10:17:29.440Z,14.10
2023-05-19T10:20:04.138Z,19.90
2023-05-19T10:22:36.649Z,19.30
2023-05-19T10:25:10.768Z,14.30
2023-05-19T10:27:49.079Z,21.60
2023-05-19T10:30:27.502Z,17.90
2023-05-19T10:33:00.454Z,18.30
2023-05-19T10:35:44.570Z,19.40
2023-05-19T10:38:22.234Z,19.50
2023-05-19T10:41:02.704Z,17.90
2023-05-19T10:43:43.562Z,19.70
2023-05-19T10:46:16.047Z,12.60
2023-05-19T10:48:49.041Z,15.40
2023-05-19T10:51:21.777Z,12.10
2023-05-19T10:53:54.316Z,14.50
2023-05-19T10:56:36.337Z,15.50
2023-05-19T10:59:09.640Z,14.80
2023-05-19T11:01:44.136Z,15.80
2023-05-19T11:04:16.427Z,10.10
2023-05-19T11:06:53.716Z,16.90
2023-05-19T11:09:39.665Z,12.60
2023-05-19T11:12:12.725Z,16.70
2023-05-19T11:14:46.770Z,18.60
2023-05-19T11:17:22.129Z,10.20
2023-05-19T11:20:02.521Z,11.20
2023-05-19T11:22:37.271Z,10.00
2023-05-19T11:25:11.233Z,10.40
2023-05-19T11:27:47.095Z,12.40
2023-05-19T11:30:20.993Z,10.50
2023-05-19T11:32:53.414Z,9.90
2023-05-19T11:35:26.187Z,13.00
2023-05-19T11:38:00.894Z,8.60
2023-05-19T11:40:33.531Z,9.80
2023-05-19T11:43:05.437Z,19.40
2023-05-19T11:45:38.107Z,11.00
2023-05-19T11:48:16.102Z,9.40
2023-05-19T11:50:49.053Z,8.70
2023-05-19T11:53:24.566Z,7.90
2023-05-19T11:55:58.629Z,8.30
2023-05-19T11:58:31.795Z,9.00
2023-05-19T12:01:10.863Z,7.50
2023-05-19T12:03:44.766Z,9.70
2023-05-19T12:06:17.601Z,14.50
2023-05-19T12:08:49.786Z,15.40
2023-05-19T12:11:22.173Z,9.90
2023-05-19T12:13:58.108Z,12.20
2023-05-19T12:16:36.833Z,7.80
2023-05-19T12:19:14.712Z,10.90
2023-05-19T12:21:48.796Z,11.60
2023-05-19T12:24:22.123Z,13.80
2023-05-19T12:26:54.362Z,12.10
2023-05-19T12:29:30.716Z,8.20
2023-05-19T12:32:04.642Z,11.60
2023-05-19T12:34:39.561Z,11.70
2023-05-19T12:37:15.905Z,9.80
2023-05-19T12:39:49.363Z,9.20
2023-05-19T12:42:26.658Z,8.40
2023-05-19T12:45:00.753Z,10.10
2023-05-19T12:47:36.576Z,9.10
2023-05-19T12:50:13.186Z,11.80
2023-05-19T12:52:48.596Z,12.80
2023-05-19T12:55:22.374Z,6.40
2023-05-19T12:57:58.285Z,8.60
2023-05-19T13:00:32.868Z,12.10
2023-05-19T13:03:07.918Z,9.00
2023-05-19T13:05:43.774Z,8.50
2023-05-19T13:08:17.304Z,7.80
2023-05-19T13:10:50.947Z,7.60
2023-05-19T13:13:23.329Z,11.00
2023-05-19T13:15:57.367Z,11.10
2023-05-19T13:18:32.667Z,15.80
2023-05-19T13:21:05.810Z,16.10
2023-05-19T13:23:38.109Z,14.80
2023-05-19T13:26:12.826Z,25.80
2023-05-19T13:28:44.845Z,9.80
2023-05-19T13:31:16.894Z,11.30
2023-05-19T13:33:49.033Z,9.70
2023-05-19T13:36:21.066Z,6.00
2023-05-19T13:38:53.202Z,7.70
2023-05-19T13:41:29.501Z,6.00
2023-05-19T13:44:04.070Z,8.60
2023-05-19T13:49:15.699Z,8.20
2023-05-19T13:51:48.931Z,10.10
2023-05-19T13:54:24.281Z,12.80
2023-05-19T13:56:56.576Z,9.50
2023-05-19T13:59:29.864Z,11.60
2023-05-19T14:02:03.965Z,9.90
2023-05-19T14:04:39.526Z,8.90
2023-05-19T14:07:11.868Z,8.50
2023-05-19T14:09:46.321Z,11.00
2023-05-19T14:12:18.665Z,8.60
2023-05-19T14:14:52.218Z,6.40
2023-05-19T14:17:24.340Z,10.60
2023-05-19T14:19:56.804Z,10.60
2023-05-19T14:22:33.496Z,13.30
2023-05-19T14:25:06.801Z,7.70
2023-05-19T14:27:42.190Z,8.00
2023-05-19T14:30:16.174Z,9.30
2023-05-19T14:32:48.952Z,11.30
2023-05-19T14:35:22.162Z,9.90
2023-05-19T14:37:57.433Z,8.30
2023-05-19T14:40:31.363Z,15.50
2023-05-19T14:43:05.157Z,9.90
2023-05-19T14:45:37.193Z,7.90
2023-05-19T14:48:12.047Z,8.70
2023-05-19T14:50:44.537Z,10.60
2023-05-19T14:53:18.602Z,10.30
2023-05-19T14:55:51.870Z,6.80
2023-05-19T14:58:28.183Z,13.00
2023-05-19T15:01:02.609Z,9.70
2023-05-19T15:03:35.439Z,8.00
2023-05-19T15:06:14.512Z,9.40
2023-05-19T15:08:46.798Z,8.20
2023-05-19T15:11:20.993Z,11.60
2023-05-19T15:16:24.374Z,7.40
2023-05-19T15:18:57.047Z,7.40
2023-05-19T15:21:29.339Z,10.90
2023-05-19T15:24:01.577Z,7.20
2023-05-19T15:26:33.946Z,8.30
2023-05-19T15:29:06.116Z,9.20
2023-05-19T15:31:39.719Z,6.20
2023-05-19T15:34:12.820Z,9.60
2023-05-19T15:36:46.128Z,8.40
2023-05-19T15:39:19.245Z,7.90
2023-05-19T15:41:53.965Z,9.20
2023-05-19T15:44:28.833Z,7.30
2023-05-19T15:47:04.475Z,11.10
2023-05-19T15:49:36.860Z,10.60
2023-05-19T15:52:09.426Z,12.90
2023-05-19T15:54:41.735Z,14.30
2023-05-19T15:57:14.334Z,8.20
2023-05-19T15:59:46.805Z,8.80
2023-05-19T16:02:19.590Z,8.40
2023-05-19T16:04:52.370Z,9.40
2023-05-19T16:07:24.692Z,10.70
2023-05-19T16:09:56.990Z,10.70
2023-05-19T16:12:30.562Z,11.10
2023-05-19T16:15:03.295Z,8.20
2023-05-19T16:17:36.281Z,10.70
2023-05-19T16:20:13.210Z,7.40
2023-05-19T16:22:45.810Z,11.80
2023-05-19T16:25:19.694Z,11.70
2023-05-19T16:27:53.466Z,8.80
2023-05-19T16:30:31.296Z,10.20
2023-05-19T16:33:04.025Z,8.30
2023-05-19T16:35:36.393Z,11.90
2023-05-19T16:38:08.755Z,7.80
2023-05-19T16:40:41.668Z,10.40
2023-05-19T16:43:13.954Z,10.30
2023-05-19T16:45:46.464Z,11.80
2023-05-19T16:48:18.471Z,11.70
2023-05-19T16:50:52.228Z,9.50
2023-05-19T16:53:25.912Z,11.70
2023-05-19T16:55:59.286Z,11.00
2023-05-19T16:58:31.531Z,10.70
2023-05-19T17:01:04.259Z,12.30
2023-05-19T17:03:36.800Z,12.20
2023-05-19T17:06:09.234Z,9.80
2023-05-19T17:08:41.362Z,11.40
2023-05-19T17:11:59.145Z,10.30
2023-05-19T17:14:32.179Z,20.30
2023-05-19T17:17:05.136Z,13.00
2023-05-19T17:19:37.390Z,13.70
2023-05-19T17:22:15.149Z,12.60
2023-05-19T17:24:47.392Z,12.90
2023-05-19T17:27:19.353Z,14.60
2023-05-19T17:29:55.085Z,11.20
2023-05-19T17:32:30.256Z,15.10
2023-05-19T17:35:03.208Z,13.50
2023-05-19T17:37:36.541Z,16.90
2023-05-19T17:40:11.695Z,13.00
2023-05-19T17:42:44.289Z,15.40
2023-05-19T17:45:16.890Z,16.40
2023-05-19T17:47:49.841Z,11.50
2023-05-19T17:50:22.656Z,19.70
2023-05-19T17:52:57.930Z,17.60
2023-05-19T17:55:32.217Z,19.50
2023-05-19T17:58:05.807Z,11.80
2023-05-19T18:00:38.881Z,13.00
2023-05-19T18:03:12.883Z,13.70
2023-05-19T18:05:46.097Z,12.40
2023-05-19T18:08:20.753Z,13.30
2023-05-19T18:10:54.434Z,10.40
2023-05-19T18:16:00.029Z,13.10
2023-05-19T18:18:34.682Z,12.30
2023-05-19T18:21:06.892Z,11.90
2023-05-19T18:23:39.388Z,15.80
2023-05-19T18:26:14.478Z,20.20
2023-05-19T18:28:46.526Z,15.10
2023-05-19T18:31:20.216Z,15.00
2023-05-19T18:33:53.300Z,12.70
2023-05-19T18:36:25.929Z,15.10
2023-05-19T18:39:01.961Z,18.30
2023-05-19T18:41:34.011Z,17.30
2023-05-19T18:44:08.150Z,21.60
2023-05-19T18:46:40.205Z,14.20
2023-05-19T18:49:15.967Z,20.50
2023-05-19T18:51:48.690Z,15.60
2023-05-19T18:54:21.803Z,16.40
2023-05-19T18:56:55.256Z,23.90
2023-05-19T18:59:30.875Z,16.00
2023-05-19T19:02:03.605Z,20.50
2023-05-19T19:04:36.527Z,16.90
2023-05-19T19:07:09.669Z,12.70
2023-05-19T19:09:43.876Z,13.30
2023-05-19T19:12:20.360Z,14.30
2023-05-19T19:14:54.710Z,18.50
2023-05-19T19:17:29.986Z,19.30
2023-05-19T19:20:04.191Z,15.90
2023-05-19T19:22:37.831Z,18.70
2023-05-19T19:25:10.895Z,21.50
2023-05-19T19:27:43.166Z,26.80
2023-05-19T19:30:15.780Z,21.10
2023-05-19T19:32:48.161Z,22.30
2023-05-19T19:35:20.284Z,20.30
2023-05-19T19:37:53.475Z,20.10
2023-05-19T19:40:26.100Z,18.10
2023-05-19T19:42:58.360Z,18.80
2023-05-19T19:45:30.690Z,20.60
2023-05-19T19:48:03.260Z,13.90
2023-05-19T19:50:36.530Z,24.30
2023-05-19T19:53:11.938Z,14.90
2023-05-19T19:55:44.425Z,14.80
2023-05-19T19:58:18.010Z,29.60
2023-05-19T20:00:58.859Z,32.30
2023-05-19T20:03:33.565Z,120.10
2023-05-19T20:06:05.887Z,34.70
2023-05-19T20:08:38.094Z,18.80
2023-05-19T20:11:13.869Z,19.30
2023-05-19T20:13:46.541Z,13.70
2023-05-19T20:16:20.779Z,14.30
2023-05-19T20:18:53.884Z,11.30
2023-05-19T20:21:27.136Z,15.50
2023-05-19T20:23:59.427Z,12.10
2023-05-19T20:26:31.584Z,20.10
2023-05-19T20:29:05.744Z,13.10
2023-05-19T20:31:40.151Z,11.50
2023-05-19T20:34:12.717Z,11.10
2023-05-19T20:36:46.233Z,11.10
2023-05-19T20:39:19.074Z,11.70
2023-05-19T20:41:51.353Z,13.90
2023-05-19T20:44:24.754Z,16.70
2023-05-19T20:46:57.946Z,10.80
2023-05-19T20:49:30.691Z,12.20
2023-05-19T20:52:03.125Z,10.60
2023-05-19T20:54:35.336Z,21.10
2023-05-19T20:57:09.479Z,13.60
2023-05-19T20:59:42.286Z,14.40
2023-05-19T21:02:14.316Z,13.70
2023-05-19T21:04:47.208Z,24.00
2023-05-19T21:07:19.792Z,11.80
2023-05-19T21:09:53.841Z,13.90
2023-05-19T21:12:28.746Z,15.50
2023-05-19T21:15:03.768Z,16.80
2023-05-19T21:17:37.575Z,16.70
2023-05-19T21:20:12.304Z,21.90
2023-05-19T21:22:44.664Z,19.10
2023-05-19T21:25:17.399Z,17.80
2023-05-19T21:27:52.055Z,18.70
2023-05-19T21:30:26.671Z,21.20
2023-05-19T21:33:03.509Z,15.60
2023-05-19T21:35:36.426Z,14.90
2023-05-19T21:38:22.563Z,23.50
2023-05-19T21:40:56.480Z,21.70
2023-05-19T21:43:29.345Z,22.30
2023-05-19T21:46:02.589Z,18.90
2023-05-19T21:48:34.531Z,18.90
2023-05-19T21:51:07.140Z,18.90
2023-05-19T21:53:39.905Z,16.90
2023-05-19T21:56:12.036Z,19.20
2023-05-19T21:58:45.258Z,52.20
2023-05-19T22:01:20.306Z,25.00
2023-05-19T22:03:55.434Z,24.30
2023-05-19T22:06:31.619Z,20.50
2023-05-19T22:09:04.442Z,23.20
2023-05-19T22:11:37.144Z,24.60
2023-05-19T22:14:11.409Z,21.40
2023-05-19T22:16:44.197Z,21.50
2023-05-19T22:19:16.432Z,24.00
2023-05-19T22:21:51.834Z,19.40
2023-05-19T22:24:28.659Z,22.40
2023-05-19T22:27:01.291Z,19.20
2023-05-19T22:29:33.689Z,21.40
2023-05-19T22:32:06.092Z,17.30
2023-05-19T22:34:38.210Z,16.30
2023-05-19T22:37:10.782Z,17.40
2023-05-19T22:39:43.483Z,18.20
2023-05-19T22:42:16.362Z,18.00
2023-05-19T22:44:54.025Z,16.30
2023-05-19T22:47:26.609Z,17.20
2023-05-19T22:49:58.562Z,13.80
2023-05-19T22:52:31.072Z,16.20
2023-05-19T22:55:05.790Z,13.30
2023-05-19T22:57:38.461Z,17.10
2023-05-19T23:00:18.840Z,15.90
2023-05-19T23:02:52.467Z,18.20
2023-05-19T23:05:24.448Z,18.50
2023-05-19T23:07:56.833Z,15.90
2023-05-19T23:10:28.982Z,16.00
2023-05-19T23:13:01.737Z,19.60
2023-05-19T23:15:34.760Z,19.40
2023-05-19T23:18:09.776Z,22.80
2023-05-19T23:20:44.485Z,22.30
2023-05-19T23:23:18.832Z,24.60
2023-05-19T23:25:51.005Z,26.40
2023-05-19T23:28:24.503Z,24.50
2023-05-19T23:30:58.267Z,27.40
2023-05-19T23:33:31.781Z,25.40
2023-05-19T23:36:09.208Z,25.80
2023-05-19T23:38:43.413Z,22.40
2023-05-19T23:41:16.678Z,22.90
2023-05-19T23:43:49.140Z,17.90
2023-05-19T23:46:21.081Z,19.00
2023-05-19T23:48:55.126Z,14.90
2023-05-19T23:51:29.308Z,20.70
2023-05-19T23:54:01.825Z,14.90
